createdAt,value
2022-10-25T00:01:31.931Z,15.00
2022-10-25T00:04:05.419Z,15.00
2022-10-25T00:06:37.345Z,15.00
2022-10-25T00:09:10.859Z,15.00
2022-10-25T00:11:41.601Z,15.00
2022-10-25T00:14:16.689Z,15.00
2022-10-25T00:16:47.559Z,15.10
2022-10-25T00:19:18.277Z,15.10
2022-10-25T00:21:49.315Z,15.10
2022-10-25T00:24:22.662Z,15.10
2022-10-25T00:26:53.397Z,15.10
2022-10-25T00:29:27.805Z,15.10
2022-10-25T00:31:58.822Z,15.40
2022-10-25T00:34:29.906Z,15.10
2022-10-25T00:37:00.599Z,15.10
2022-10-25T00:39:34.180Z,15.10
2022-10-25T00:42:05.276Z,15.10
2022-10-25T00:44:57.288Z,15.10
2022-10-25T00:47:49.175Z,15.10
2022-10-25T00:50:38.190Z,15.10
2022-10-25T00:53:13.730Z,15.10
2022-10-25T00:55:51.493Z,15.10
2022-10-25T00:58:28.397Z,15.10
2022-10-25T01:00:59.495Z,15.10
2022-10-25T01:03:30.491Z,15.40
2022-10-25T01:06:02.487Z,15.10
2022-10-25T01:08:33.749Z,15.10
2022-10-25T01:11:07.263Z,15.10
2022-10-25T01:13:40.941Z,15.20
2022-10-25T01:16:18.951Z,15.20
2022-10-25T01:18:58.207Z,15.50
2022-10-25T01:21:47.152Z,15.30
2022-10-25T01:24:49.341Z,15.20
2022-10-25T01:27:53.000Z,15.20
2022-10-25T01:30:35.603Z,15.20
2022-10-25T01:33:19.805Z,15.30
2022-10-25T01:35:58.008Z,15.20
2022-10-25T01:38:36.148Z,15.10
2022-10-25T01:41:18.301Z,15.10
2022-10-25T01:44:10.423Z,15.10
2022-10-25T01:46:47.406Z,15.10
2022-10-25T01:49:26.468Z,15.10
2022-10-25T01:51:57.365Z,15.10
2022-10-25T01:54:30.525Z,15.10
2022-10-25T01:57:20.282Z,15.10
2022-10-25T02:00:08.934Z,15.20
2022-10-25T02:02:52.418Z,15.20
2022-10-25T02:05:32.925Z,15.30
2022-10-25T02:08:08.676Z,15.30
2022-10-25T02:10:43.704Z,15.20
2022-10-25T02:13:28.566Z,15.20
2022-10-25T02:16:04.222Z,15.50
2022-10-25T02:18:39.328Z,15.60
2022-10-25T02:21:17.800Z,15.20
2022-10-25T02:23:50.578Z,15.20
2022-10-25T02:26:22.575Z,15.20
2022-10-25T02:28:54.686Z,15.20
2022-10-25T02:31:28.006Z,15.60
2022-10-25T02:34:00.167Z,15.20
2022-10-25T02:36:33.666Z,15.20
2022-10-25T02:39:05.036Z,15.20
2022-10-25T02:41:36.367Z,15.30
2022-10-25T02:44:07.775Z,15.20
2022-10-25T02:46:42.526Z,15.20
2022-10-25T02:49:13.310Z,15.10
2022-10-25T02:51:47.003Z,15.20
2022-10-25T02:54:17.876Z,15.40
2022-10-25T02:56:52.584Z,15.20
2022-10-25T02:59:24.425Z,15.20
2022-10-25T03:01:55.606Z,15.20
2022-10-25T03:04:26.651Z,15.20
2022-10-25T03:07:00.275Z,15.20
2022-10-25T03:09:31.061Z,15.20
2022-10-25T03:12:01.825Z,15.30
2022-10-25T03:14:32.556Z,15.30
2022-10-25T03:17:06.382Z,15.20
2022-10-25T03:19:37.427Z,15.30
2022-10-25T03:22:12.011Z,15.40
2022-10-25T03:24:43.070Z,15.20
2022-10-25T03:27:13.804Z,15.30
2022-10-25T03:29:44.581Z,15.30
2022-10-25T03:32:17.561Z,15.30
2022-10-25T03:34:48.314Z,15.30
2022-10-25T03:37:21.743Z,15.30
2022-10-25T03:39:54.131Z,15.30
2022-10-25T03:42:27.104Z,15.30
2022-10-25T03:44:57.875Z,15.30
2022-10-25T03:47:28.609Z,15.30
2022-10-25T03:50:00.761Z,15.30
2022-10-25T03:52:34.529Z,15.60
2022-10-25T03:55:05.280Z,15.30
2022-10-25T03:57:36.238Z,15.20
2022-10-25T04:00:08.210Z,15.10
2022-10-25T04:02:38.973Z,15.10
2022-10-25T04:05:13.020Z,15.10
2022-10-25T04:07:46.499Z,15.10
2022-10-25T04:10:20.094Z,15.10
2022-10-25T04:12:53.640Z,14.80
2022-10-25T04:15:26.085Z,15.00
2022-10-25T04:17:56.839Z,15.00
2022-10-25T04:20:28.179Z,14.90
2022-10-25T04:23:01.787Z,14.90
2022-10-25T04:25:32.611Z,14.90
2022-10-25T04:28:04.556Z,14.80
2022-10-25T04:30:38.048Z,14.80
2022-10-25T04:33:09.706Z,15.30
2022-10-25T04:35:40.456Z,14.80
2022-10-25T04:38:13.846Z,14.80
2022-10-25T04:40:45.577Z,14.90
2022-10-25T04:43:16.303Z,14.80
2022-10-25T04:45:47.040Z,14.70
2022-10-25T04:48:17.860Z,14.80
2022-10-25T04:50:49.058Z,14.80
2022-10-25T04:53:23.883Z,15.10
2022-10-25T04:56:01.780Z,14.90
2022-10-25T04:58:35.592Z,14.90
2022-10-25T05:01:09.192Z,14.90
2022-10-25T05:03:41.963Z,14.90
2022-10-25T05:06:14.458Z,14.90
2022-10-25T05:08:51.109Z,14.80
2022-10-25T05:11:24.268Z,14.80
2022-10-25T05:13:55.134Z,14.90
2022-10-25T05:16:26.590Z,14.90
2022-10-25T05:19:01.158Z,14.90
2022-10-25T05:21:32.179Z,14.90
2022-10-25T05:24:05.680Z,15.00
2022-10-25T05:26:38.704Z,14.90
2022-10-25T05:29:10.406Z,14.90
2022-10-25T05:31:43.241Z,14.90
2022-10-25T05:34:13.928Z,14.90
2022-10-25T05:36:44.941Z,14.90
2022-10-25T05:39:18.312Z,14.90
2022-10-25T05:41:49.707Z,14.90
2022-10-25T05:44:20.934Z,14.90
2022-10-25T05:46:51.817Z,14.90
2022-10-25T05:49:22.919Z,14.90
2022-10-25T05:51:53.583Z,14.90
2022-10-25T05:54:32.588Z,14.90
2022-10-25T05:57:03.513Z,14.90
2022-10-25T05:59:37.475Z,14.90
2022-10-25T06:02:08.860Z,14.90
2022-10-25T06:04:40.240Z,14.90
2022-10-25T06:07:11.341Z,15.10
2022-10-25T06:09:44.654Z,14.90
2022-10-25T06:12:15.382Z,14.90
2022-10-25T06:14:47.951Z,14.90
2022-10-25T06:17:18.718Z,14.90
2022-10-25T06:19:51.565Z,14.90
2022-10-25T06:22:23.436Z,14.90
2022-10-25T06:24:57.066Z,15.00
2022-10-25T06:27:29.101Z,15.00
2022-10-25T06:30:01.333Z,15.00
2022-10-25T06:32:39.887Z,15.00
2022-10-25T06:35:11.567Z,14.90
2022-10-25T06:37:42.236Z,14.90
2022-10-25T06:40:16.040Z,14.90
2022-10-25T06:42:47.152Z,14.90
2022-10-25T06:45:18.648Z,14.90
2022-10-25T06:47:50.353Z,14.90
2022-10-25T06:50:21.288Z,14.90
2022-10-25T06:52:52.000Z,14.90
2022-10-25T06:55:28.314Z,14.80
2022-10-25T06:58:02.183Z,14.90
2022-10-25T07:00:33.306Z,14.90
2022-10-25T07:03:08.296Z,14.90
2022-10-25T07:05:39.173Z,15.20
2022-10-25T07:08:11.379Z,14.80
2022-10-25T07:10:46.084Z,14.80
2022-10-25T07:13:16.821Z,14.80
2022-10-25T07:15:52.448Z,15.00
2022-10-25T07:18:23.286Z,14.80
2022-10-25T07:20:56.918Z,14.80
2022-10-25T07:23:29.981Z,14.80
2022-10-25T07:26:03.482Z,14.90
2022-10-25T07:28:34.211Z,15.00
2022-10-25T07:31:04.934Z,15.00
2022-10-25T07:33:36.186Z,15.10
2022-10-25T07:36:17.042Z,15.10
2022-10-25T07:38:47.807Z,15.10
2022-10-25T07:41:21.291Z,15.10
2022-10-25T07:43:53.263Z,15.10
2022-10-25T07:46:24.240Z,14.80
2022-10-25T07:48:55.144Z,15.10
2022-10-25T07:51:25.891Z,15.10
2022-10-25T07:54:04.130Z,15.10
2022-10-25T07:56:37.458Z,15.20
2022-10-25T07:59:08.193Z,15.40
2022-10-25T08:01:40.959Z,15.10
2022-10-25T08:04:14.263Z,15.20
2022-10-25T08:06:45.040Z,15.20
2022-10-25T08:09:33.604Z,15.20
2022-10-25T08:12:09.678Z,15.30
2022-10-25T08:14:42.311Z,15.30
2022-10-25T08:17:15.647Z,15.40
2022-10-25T08:19:50.964Z,15.40
2022-10-25T08:22:22.037Z,15.40
2022-10-25T08:24:52.758Z,15.40
2022-10-25T08:27:26.217Z,15.50
2022-10-25T08:29:58.841Z,15.70
2022-10-25T08:32:31.374Z,15.70
2022-10-25T08:35:03.143Z,15.60
2022-10-25T08:37:35.214Z,15.70
2022-10-25T08:40:07.592Z,15.80
2022-10-25T08:42:52.810Z,15.80
2022-10-25T08:45:37.233Z,15.70
2022-10-25T08:48:16.259Z,15.70
2022-10-25T08:50:55.789Z,15.90
2022-10-25T08:53:30.632Z,15.90
2022-10-25T08:56:16.091Z,15.90
2022-10-25T08:58:57.436Z,15.80
2022-10-25T09:01:31.840Z,15.80
2022-10-25T09:04:03.150Z,15.90
2022-10-25T09:06:39.967Z,15.90
2022-10-25T09:09:23.335Z,15.90
2022-10-25T09:12:07.992Z,15.90
2022-10-25T09:14:49.497Z,16.00
2022-10-25T09:17:25.080Z,15.90
2022-10-25T09:20:10.267Z,15.90
2022-10-25T09:22:47.952Z,16.10
2022-10-25T09:25:26.373Z,15.80
2022-10-25T09:28:03.700Z,15.80
2022-10-25T09:30:41.223Z,15.80
2022-10-25T09:35:53.944Z,15.70
2022-10-25T09:38:28.846Z,15.80
2022-10-25T09:41:04.446Z,15.80
2022-10-25T09:43:42.319Z,15.90
2022-10-25T09:46:20.260Z,15.80
2022-10-25T09:48:58.385Z,15.80
2022-10-25T09:51:37.256Z,15.80
2022-10-25T09:54:17.472Z,15.90
2022-10-25T09:56:50.613Z,15.90
2022-10-25T09:59:21.471Z,15.90
2022-10-25T10:01:58.580Z,15.90
2022-10-25T10:04:37.116Z,16.20
2022-10-25T10:07:14.601Z,15.90
2022-10-25T10:09:47.783Z,15.90
2022-10-25T10:12:25.040Z,16.10
2022-10-25T10:15:00.128Z,16.60
2022-10-25T10:17:36.025Z,16.10
2022-10-25T10:20:18.946Z,16.20
2022-10-25T10:22:55.130Z,16.20
2022-10-25T10:25:33.028Z,16.20
2022-10-25T10:28:04.030Z,16.30
2022-10-25T10:30:38.911Z,16.40
2022-10-25T10:33:20.315Z,16.50
2022-10-25T10:35:57.014Z,16.50
2022-10-25T10:38:29.936Z,16.60
2022-10-25T10:41:22.899Z,16.60
2022-10-25T10:43:56.946Z,16.60
2022-10-25T10:46:27.822Z,16.60
2022-10-25T10:49:01.660Z,16.90
2022-10-25T10:51:44.996Z,16.70
2022-10-25T10:54:25.047Z,16.70
2022-10-25T10:56:57.815Z,16.70
2022-10-25T10:59:39.167Z,16.90
2022-10-25T11:02:30.464Z,17.10
2022-10-25T11:05:07.029Z,16.90
2022-10-25T11:07:39.228Z,16.90
2022-10-25T11:10:26.518Z,17.00
2022-10-25T11:13:15.066Z,17.10
2022-10-25T11:16:12.984Z,16.90
2022-10-25T11:18:53.498Z,16.90
2022-10-25T11:21:41.452Z,17.00
2022-10-25T11:24:23.008Z,17.10
2022-10-25T11:27:00.235Z,17.10
2022-10-25T11:29:46.188Z,17.10
2022-10-25T11:32:38.131Z,17.20
2022-10-25T11:35:14.360Z,17.30
2022-10-25T11:37:55.879Z,17.50
2022-10-25T11:40:32.433Z,17.60
2022-10-25T11:43:26.162Z,17.60
2022-10-25T11:46:04.661Z,17.80
2022-10-25T11:48:49.701Z,17.60
2022-10-25T11:51:32.663Z,17.60
2022-10-25T11:54:20.486Z,17.60
2022-10-25T11:57:01.030Z,17.70
2022-10-25T11:59:46.121Z,17.80
2022-10-25T12:02:38.292Z,17.60
2022-10-25T12:05:23.723Z,17.60
2022-10-25T12:08:04.796Z,17.50
2022-10-25T12:10:42.326Z,17.50
2022-10-25T12:13:21.911Z,17.60
2022-10-25T12:15:56.364Z,17.70
2022-10-25T12:18:29.973Z,17.70
2022-10-25T12:21:01.488Z,17.70
2022-10-25T12:23:34.962Z,17.80
2022-10-25T12:26:12.483Z,17.80
2022-10-25T12:28:47.508Z,17.80
2022-10-25T12:31:21.391Z,17.90
2022-10-25T12:33:56.588Z,18.00
2022-10-25T12:36:32.395Z,18.10
2022-10-25T12:39:07.236Z,18.10
2022-10-25T12:41:42.109Z,18.20
2022-10-25T12:44:28.004Z,18.40
2022-10-25T12:47:19.281Z,18.50
2022-10-25T12:50:23.837Z,18.60
2022-10-25T12:53:36.464Z,18.60
2022-10-25T12:56:19.819Z,18.60
2022-10-25T12:59:10.904Z,18.60
2022-10-25T13:01:54.607Z,18.60
2022-10-25T13:04:56.659Z,18.50
2022-10-25T13:07:27.839Z,18.50
2022-10-25T13:10:06.492Z,18.60
2022-10-25T13:12:38.494Z,18.70
2022-10-25T13:15:22.965Z,18.70
2022-10-25T13:18:07.825Z,18.60
2022-10-25T13:20:53.349Z,18.50
2022-10-25T13:23:51.228Z,18.40
2022-10-25T13:26:25.712Z,18.20
2022-10-25T13:28:58.299Z,18.20
2022-10-25T13:32:00.046Z,18.30
2022-10-25T13:34:38.563Z,18.00
2022-10-25T13:37:40.428Z,18.10
2022-10-25T13:40:25.347Z,17.90
2022-10-25T13:43:07.209Z,17.90
2022-10-25T13:45:43.355Z,17.80
2022-10-25T13:48:30.076Z,17.90
2022-10-25T13:51:03.136Z,17.90
2022-10-25T13:53:39.877Z,18.10
2022-10-25T13:56:19.010Z,18.00
2022-10-25T13:58:52.737Z,18.00
2022-10-25T14:02:00.108Z,18.10
2022-10-25T14:04:41.834Z,18.10
2022-10-25T14:07:42.685Z,18.10
2022-10-25T14:10:24.660Z,18.10
2022-10-25T14:13:01.527Z,18.10
2022-10-25T14:15:48.250Z,17.90
2022-10-25T14:18:24.672Z,17.90
2022-10-25T14:21:02.133Z,17.80
2022-10-25T14:23:37.200Z,17.70
2022-10-25T14:26:16.817Z,17.70
2022-10-25T14:28:47.515Z,17.80
2022-10-25T14:31:22.416Z,17.80
2022-10-25T14:33:55.296Z,17.80
2022-10-25T14:36:32.398Z,17.80
2022-10-25T14:39:16.372Z,17.70
2022-10-25T14:41:54.149Z,17.70
2022-10-25T14:44:28.627Z,17.70
2022-10-25T14:47:00.933Z,17.60
2022-10-25T14:49:31.711Z,17.60
2022-10-25T14:52:10.492Z,17.60
2022-10-25T14:54:41.938Z,17.60
2022-10-25T14:57:13.968Z,17.60
2022-10-25T14:59:48.864Z,18.10
2022-10-25T15:02:26.445Z,17.70
2022-10-25T15:05:00.261Z,17.60
2022-10-25T15:07:36.615Z,17.50
2022-10-25T15:10:08.477Z,17.40
2022-10-25T15:12:39.270Z,17.40
2022-10-25T15:15:34.178Z,17.50
2022-10-25T15:18:07.686Z,17.40
2022-10-25T15:20:38.456Z,17.40
2022-10-25T15:23:19.401Z,17.40
2022-10-25T15:25:50.443Z,17.40
2022-10-25T15:28:23.664Z,17.40
2022-10-25T15:31:05.185Z,17.40
2022-10-25T15:33:35.871Z,17.40
2022-10-25T15:36:08.470Z,17.40
2022-10-25T15:39:06.303Z,17.40
2022-10-25T15:41:32.636Z,17.30
2022-10-25T15:44:03.406Z,17.20
2022-10-25T15:46:38.124Z,17.10
2022-10-25T15:49:09.924Z,17.20
2022-10-25T15:51:42.508Z,17.00
2022-10-25T15:54:18.673Z,17.40
2022-10-25T15:56:49.727Z,17.00
2022-10-25T15:59:21.381Z,17.00
2022-10-25T16:01:56.071Z,16.90
2022-10-25T16:04:26.940Z,17.00
2022-10-25T16:06:57.786Z,16.60
2022-10-25T16:09:33.005Z,16.60
2022-10-25T16:12:03.752Z,16.50
2022-10-25T16:14:34.564Z,16.50
2022-10-25T16:17:07.719Z,16.50
2022-10-25T16:19:38.450Z,16.40
2022-10-25T16:22:10.392Z,16.20
2022-10-25T16:24:43.734Z,16.40
2022-10-25T16:27:15.320Z,16.10
2022-10-25T16:29:47.121Z,16.40
2022-10-25T16:32:20.364Z,15.90
2022-10-25T16:34:53.566Z,15.80
2022-10-25T16:37:24.316Z,15.80
2022-10-25T16:39:57.797Z,15.80
2022-10-25T16:42:36.478Z,15.90
2022-10-25T16:45:19.337Z,15.80
2022-10-25T16:47:50.360Z,15.80
2022-10-25T16:50:23.718Z,15.80
2022-10-25T16:52:55.128Z,15.80
2022-10-25T16:55:30.681Z,15.80
2022-10-25T16:58:03.787Z,15.80
2022-10-25T17:00:36.057Z,15.80
2022-10-25T17:03:07.573Z,15.80
2022-10-25T17:05:39.870Z,15.90
2022-10-25T17:08:10.679Z,15.80
2022-10-25T17:10:46.070Z,15.80
2022-10-25T17:13:19.511Z,15.70
2022-10-25T17:15:51.900Z,15.60
2022-10-25T17:18:26.977Z,15.50
2022-10-25T17:20:57.771Z,15.30
2022-10-25T17:23:28.516Z,15.70
2022-10-25T17:26:15.149Z,15.10
2022-10-25T17:28:45.881Z,15.10
2022-10-25T17:31:17.753Z,15.00
2022-10-25T17:33:49.160Z,14.90
2022-10-25T17:36:21.403Z,14.80
2022-10-25T17:38:52.381Z,14.70
2022-10-25T17:41:25.808Z,14.60
2022-10-25T17:43:57.101Z,14.50
2022-10-25T17:46:30.009Z,14.50
2022-10-25T17:49:05.892Z,14.40
2022-10-25T17:51:37.749Z,14.40
2022-10-25T17:54:11.071Z,14.30
2022-10-25T17:56:44.471Z,14.30
2022-10-25T17:59:15.354Z,14.20
2022-10-25T18:01:46.197Z,14.10
2022-10-25T18:04:17.094Z,14.00
2022-10-25T18:06:50.537Z,14.00
2022-10-25T18:09:21.880Z,13.90
2022-10-25T18:11:55.305Z,13.90
2022-10-25T18:14:26.104Z,13.80
2022-10-25T18:16:56.821Z,13.70
2022-10-25T18:19:30.051Z,13.60
2022-10-25T18:22:05.167Z,13.60
2022-10-25T18:24:37.148Z,13.50
2022-10-25T18:27:12.648Z,13.50
2022-10-25T18:29:46.059Z,13.90
2022-10-25T18:32:18.800Z,13.50
2022-10-25T18:34:49.679Z,13.50
2022-10-25T18:37:20.453Z,13.50
2022-10-25T18:39:51.199Z,13.50
2022-10-25T18:42:27.033Z,13.40
2022-10-25T18:45:00.156Z,13.30
2022-10-25T18:47:32.411Z,13.30
2022-10-25T18:50:05.052Z,13.30
2022-10-25T18:52:35.857Z,13.20
2022-10-25T18:55:07.872Z,13.10
2022-10-25T18:57:41.299Z,13.10
2022-10-25T19:00:15.962Z,13.10
2022-10-25T19:02:49.766Z,13.00
2022-10-25T19:05:20.851Z,13.00
2022-10-25T19:07:53.712Z,13.00
2022-10-25T19:10:26.864Z,12.90
2022-10-25T19:13:00.343Z,12.90
2022-10-25T19:15:31.256Z,12.80
2022-10-25T19:18:03.150Z,12.80
2022-10-25T19:20:33.950Z,12.80
2022-10-25T19:23:05.066Z,12.80
2022-10-25T19:25:35.849Z,13.00
2022-10-25T19:28:09.687Z,12.70
2022-10-25T19:30:42.833Z,12.70
2022-10-25T19:33:13.997Z,12.70
2022-10-25T19:35:44.867Z,12.70
2022-10-25T19:38:15.646Z,12.70
2022-10-25T19:40:47.866Z,13.10
2022-10-25T19:43:21.208Z,12.80
2022-10-25T19:45:52.018Z,12.70
2022-10-25T19:48:23.125Z,12.70
2022-10-25T19:50:54.585Z,12.70
2022-10-25T19:53:29.797Z,12.70
2022-10-25T19:56:02.425Z,12.60
2022-10-25T19:58:35.845Z,12.60
2022-10-25T20:01:10.192Z,12.60
2022-10-25T20:03:41.926Z,12.60
2022-10-25T20:06:18.821Z,12.50
2022-10-25T20:08:52.536Z,12.50
2022-10-25T20:11:24.316Z,12.80
2022-10-25T20:13:59.666Z,12.40
2022-10-25T20:16:34.016Z,12.40
2022-10-25T20:19:06.168Z,12.30
2022-10-25T20:21:39.123Z,12.30
2022-10-25T20:24:11.632Z,12.30
2022-10-25T20:26:44.688Z,12.20
2022-10-25T20:29:21.443Z,12.20
2022-10-25T20:31:53.259Z,12.20
2022-10-25T20:34:24.815Z,12.20
2022-10-25T20:36:58.568Z,12.10
2022-10-25T20:39:33.182Z,12.10
2022-10-25T20:42:03.933Z,12.10
2022-10-25T20:44:37.430Z,12.00
2022-10-25T20:47:08.278Z,12.00
2022-10-25T20:49:39.010Z,12.00
2022-10-25T20:52:17.281Z,12.00
2022-10-25T20:54:48.393Z,12.00
2022-10-25T20:57:19.194Z,12.10
2022-10-25T20:59:52.544Z,12.00
2022-10-25T21:02:23.367Z,12.20
2022-10-25T21:04:54.245Z,12.10
2022-10-25T21:07:25.208Z,12.10
2022-10-25T21:09:56.208Z,12.20
2022-10-25T21:12:27.109Z,12.10
2022-10-25T21:15:00.519Z,12.20
2022-10-25T21:17:31.232Z,12.20
2022-10-25T21:20:02.084Z,12.30
2022-10-25T21:22:32.844Z,12.30
2022-10-25T21:25:03.607Z,12.30
2022-10-25T21:27:34.605Z,12.30
2022-10-25T21:30:16.912Z,12.30
2022-10-25T21:32:47.650Z,12.30
2022-10-25T21:35:20.719Z,12.30
2022-10-25T21:37:52.224Z,12.20
2022-10-25T21:40:23.302Z,12.20
2022-10-25T21:42:54.163Z,12.20
2022-10-25T21:45:27.927Z,12.30
2022-10-25T21:47:58.710Z,12.20
2022-10-25T21:50:29.532Z,12.30
2022-10-25T21:53:00.243Z,12.20
2022-10-25T21:55:30.989Z,12.60
2022-10-25T21:58:01.949Z,12.20
2022-10-25T22:00:35.954Z,12.10
2022-10-25T22:03:07.043Z,12.10
2022-10-25T22:05:37.806Z,12.10
2022-10-25T22:08:11.317Z,12.00
2022-10-25T22:10:43.658Z,12.00
2022-10-25T22:13:14.803Z,12.00
2022-10-25T22:15:58.304Z,12.00
2022-10-25T22:18:34.756Z,12.00
2022-10-25T22:21:08.643Z,12.00
2022-10-25T22:23:40.456Z,12.50
2022-10-25T22:26:13.515Z,11.90
2022-10-25T22:28:45.038Z,12.00
2022-10-25T22:31:20.194Z,11.90
2022-10-25T22:33:56.581Z,11.90
2022-10-25T22:36:30.629Z,12.00
2022-10-25T22:39:01.839Z,11.90
2022-10-25T22:41:33.287Z,11.90
2022-10-25T22:44:04.949Z,11.90
2022-10-25T22:46:41.001Z,11.90
2022-10-25T22:49:12.533Z,11.90
2022-10-25T22:51:45.885Z,11.90
2022-10-25T22:54:16.662Z,11.90
2022-10-25T22:56:48.847Z,11.80
2022-10-25T22:59:19.776Z,11.80
2022-10-25T23:01:53.370Z,11.80
2022-10-25T23:04:24.247Z,11.80
2022-10-25T23:06:55.245Z,11.70
2022-10-25T23:09:33.385Z,11.70
2022-10-25T23:12:04.252Z,11.60
2022-10-25T23:14:36.648Z,11.60
2022-10-25T23:17:10.282Z,11.60
2022-10-25T23:19:41.228Z,11.50
2022-10-25T23:22:11.988Z,11.70
2022-10-25T23:24:43.122Z,11.50
2022-10-25T23:27:13.884Z,11.50
2022-10-25T23:29:44.943Z,11.50
2022-10-25T23:32:18.376Z,11.50
2022-10-25T23:34:50.693Z,11.50
2022-10-25T23:37:23.314Z,11.40
2022-10-25T23:39:56.358Z,11.40
2022-10-25T23:42:30.131Z,11.40
2022-10-25T23:45:03.245Z,11.40
2022-10-25T23:47:36.782Z,11.40
2022-10-25T23:50:08.582Z,11.40
2022-10-25T23:52:40.280Z,11.40
2022-10-25T23:55:11.568Z,11.40
2022-10-25T23:57:42.627Z,11.40
